Portada
METAR-TAF:

METAR-TAF

Aeropuertos :

Base Aérea de Almagro

Almagro, España

latitud: 38-57-11N, longitud: 3-44-29W, altitud: 629 m

METAR: falta

Hora: 00:01 (23:01 UTC)

Pronóstico

El informe se hizo hace 6 horas y 1 minutos, a las 17:00 UTC
Pronóstico válido del 15 a las 18 UTC al 16 a las 03 UTC
Viento 11 kt del oeste
Visibilidad 10 km o más
Nubes dispersas a una altura de 1200 ft
Cielo nuboso a una altura de 2000 ft

TAF: LEAO 151700Z 1518/1603 26011KT 9999 SCT012 BKN020

Observaciones y pronósticos meteorológicos de más de 4000 aeropuertos (mensajes METAR y TAF).

Los puntos amarillos y rojos representan las estaciones disponibles.

Ponga el ratón en el punto deseado para ver el nombre de la estación.

Haga clic para ver las observaciones y los pronósticos meteorológicos.

Para cambiar el mapa : haga clic en los botones verdes con una cruz de color negro para hacer un zoom, en el botón verde con un guión para alejar o en las flechas verdes para mapas adyacentes.


METAR-TAF: